Time;durP1;ratioP1;P1;durP2;ratioP2;P2;SDS_P1;SDS_P2;PMS_P1;PMS_P2;Temp;Humidity;BMP_temperature;BMP_pressure;BME280_temperature;BME280_humidity;BME280_pressure;Samples;Min_cycle;Max_cycle;Signal;HPM_P1;HPM_P2
2021/11/30 00:02:02;;;;;;;30.42;8.93;;;1.40;99.90;;;;;;4965917;28;20130;-86
2021/11/30 00:04:30;;;;;;;22.08;8.88;;;1.50;99.90;;;;;;4962722;28;20055;-86
2021/11/30 00:06:59;;;;;;;24.33;9.07;;;1.60;99.90;;;;;;4956300;28;20138;-86
2021/11/30 00:12:09;;;;;;;25.83;9.57;;;1.70;99.90;;;;;;4955817;29;20055;-86
2021/11/30 00:14:38;;;;;;;23.42;8.75;;;1.80;99.90;;;;;;4954251;28;20085;-86
2021/11/30 00:17:06;;;;;;;24.42;9.05;;;1.80;99.90;;;;;;4954951;29;20051;-85
2021/11/30 00:19:34;;;;;;;29.73;9.93;;;1.80;99.90;;;;;;4955537;28;20071;-86
2021/11/30 00:22:02;;;;;;;33.88;9.70;;;1.90;99.90;;;;;;4954037;28;20138;-86
2021/11/30 00:24:30;;;;;;;31.20;9.43;;;1.80;99.90;;;;;;4940838;29;20055;-85
2021/11/30 00:27:01;;;;;;;27.63;9.57;;;2.00;99.90;;;;;;4954415;29;20109;-86
2021/11/30 00:29:28;;;;;;;25.42;9.57;;;2.00;99.90;;;;;;4953898;28;20134;-86
2021/11/30 00:31:55;;;;;;;30.40;10.65;;;1.90;99.90;;;;;;4957487;28;20757;-86
2021/11/30 00:34:22;;;;;;;22.73;9.95;;;2.10;99.90;;;;;;4969467;28;20134;-86
2021/11/30 00:36:49;;;;;;;25.17;9.73;;;2.10;99.90;;;;;;4969410;28;20130;-86
2021/11/30 00:39:16;;;;;;;31.65;10.27;;;2.00;99.90;;;;;;4963397;28;20051;-86
2021/11/30 00:41:48;;;;;;;28.95;10.27;;;2.00;99.90;;;;;;4959817;28;20109;-86
2021/11/30 00:44:20;;;;;;;29.10;10.90;;;2.20;99.90;;;;;;4965986;28;20126;-87
2021/11/30 00:46:49;;;;;;;30.30;11.00;;;2.10;99.90;;;;;;4953899;28;20126;-87
2021/11/30 00:49:15;;;;;;;32.28;11.05;;;2.20;99.90;;;;;;4953562;28;20082;-86
2021/11/30 00:51:44;;;;;;;31.10;11.50;;;2.10;99.90;;;;;;4953220;28;20496;-86
2021/11/30 00:54:14;;;;;;;35.47;12.63;;;2.20;99.90;;;;;;4944124;28;20043;-86
2021/11/30 00:56:45;;;;;;;42.05;12.82;;;2.20;99.90;;;;;;4941142;28;20043;-87
2021/11/30 00:59:12;;;;;;;43.78;12.85;;;2.10;99.90;;;;;;4959007;28;20047;-87
2021/11/30 01:01:39;;;;;;;36.65;13.13;;;2.30;99.90;;;;;;4954560;28;20102;-88
2021/11/30 01:04:12;;;;;;;35.55;13.18;;;2.40;99.90;;;;;;4969595;28;20047;-87
2021/11/30 01:06:39;;;;;;;33.97;13.27;;;2.50;99.90;;;;;;4954472;28;20146;-88
2021/11/30 01:09:08;;;;;;;36.90;13.98;;;2.10;99.90;;;;;;4946931;28;20057;-88
2021/11/30 01:11:37;;;;;;;42.55;14.45;;;2.10;99.90;;;;;;4963866;28;20086;-88
2021/11/30 01:14:05;;;;;;;40.88;13.93;;;2.20;99.90;;;;;;4956523;28;20130;-88
2021/11/30 01:16:33;;;;;;;40.35;14.63;;;2.10;99.90;;;;;;4944823;28;20055;-88
2021/11/30 01:19:14;;;;;;;40.55;14.07;;;2.10;99.90;;;;;;4962010;28;20047;-88
2021/11/30 01:21:42;;;;;;;38.85;13.50;;;2.20;99.90;;;;;;4954528;28;20043;-88
2021/11/30 01:24:09;;;;;;;33.78;13.40;;;2.00;99.90;;;;;;4953429;28;20081;-88
2021/11/30 01:26:36;;;;;;;38.83;14.00;;;2.00;99.90;;;;;;4954219;29;20131;-88
2021/11/30 01:29:04;;;;;;;44.55;14.98;;;2.10;99.90;;;;;;4937450;29;20098;-89
2021/11/30 01:31:32;;;;;;;44.97;15.77;;;2.10;99.90;;;;;;4953407;28;20877;-89
2021/11/30 01:33:59;;;;;;;43.85;13.90;;;2.10;99.90;;;;;;4953753;28;20087;-89
2021/11/30 01:36:29;;;;;;;49.95;14.82;;;2.10;99.90;;;;;;4953432;28;20089;-89
2021/11/30 01:38:56;;;;;;;41.85;14.05;;;2.00;99.90;;;;;;4953451;29;20106;-88
2021/11/30 01:41:23;;;;;;;46.58;15.55;;;2.10;99.90;;;;;;4962189;28;20533;-89
2021/11/30 01:43:51;;;;;;;42.92;14.05;;;2.10;99.90;;;;;;4965624;28;20433;-88
2021/11/30 01:46:39;;;;;;;43.90;15.38;;;2.10;99.90;;;;;;4945222;28;20089;-88
2021/11/30 01:51:45;;;;;;;42.70;15.23;;;2.20;99.90;;;;;;4959558;28;20324;-88
2021/11/30 01:54:13;;;;;;;39.47;14.88;;;2.20;99.90;;;;;;4954701;28;20139;-88
2021/11/30 01:56:39;;;;;;;48.50;15.93;;;2.20;99.90;;;;;;4952077;28;20098;-89
2021/11/30 01:59:07;;;;;;;44.97;15.60;;;2.30;99.90;;;;;;4957476;28;20054;-88
2021/11/30 02:01:34;;;;;;;47.63;17.02;;;2.20;99.90;;;;;;4955237;29;20084;-88
2021/11/30 02:04:01;;;;;;;44.38;16.90;;;2.30;99.90;;;;;;4954096;28;20547;-88
2021/11/30 02:06:28;;;;;;;48.85;16.83;;;2.60;99.90;;;;;;4935332;29;20079;-87
2021/11/30 02:08:56;;;;;;;44.35;15.68;;;2.30;99.90;;;;;;4954261;28;20142;-88
2021/11/30 02:11:25;;;;;;;44.63;15.68;;;2.40;99.90;;;;;;4960527;28;20134;-88
2021/11/30 02:13:52;;;;;;;46.65;15.57;;;2.40;99.90;;;;;;4952883;28;20086;-88
2021/11/30 02:16:21;;;;;;;44.10;15.68;;;2.50;99.90;;;;;;4969186;28;20098;-88
2021/11/30 02:18:49;;;;;;;41.80;15.45;;;2.50;99.90;;;;;;4952323;28;20051;-88
2021/11/30 02:21:17;;;;;;;44.45;15.88;;;2.50;99.90;;;;;;4969849;28;20085;-88
2021/11/30 02:23:59;;;;;;;53.88;16.88;;;2.50;99.90;;;;;;4956711;28;20471;-88
2021/11/30 02:26:27;;;;;;;47.63;15.98;;;2.60;99.90;;;;;;4953649;29;20130;-89
2021/11/30 02:28:58;;;;;;;49.97;18.35;;;2.50;99.90;;;;;;4954813;29;20145;-89
2021/11/30 02:31:28;;;;;;;47.15;16.50;;;2.50;99.90;;;;;;4955442;28;20055;-89
2021/11/30 02:33:56;;;;;;;44.17;16.58;;;2.90;99.90;;;;;;4954347;28;20059;-85
2021/11/30 02:36:32;;;;;;;40.92;14.38;;;2.50;99.90;;;;;;4954584;29;20102;-90
2021/11/30 02:39:03;;;;;;;42.90;15.98;;;2.60;99.90;;;;;;4954668;29;20078;-91
2021/11/30 02:41:31;;;;;;;40.83;15.48;;;2.60;99.90;;;;;;4951948;28;20456;-91
2021/11/30 02:43:58;;;;;;;39.45;15.05;;;2.50;99.90;;;;;;4962371;28;20079;-92
2021/11/30 02:46:31;;;;;;;44.45;15.15;;;2.70;99.90;;;;;;4954768;29;20090;-92
2021/11/30 02:49:00;;;;;;;41.80;15.88;;;2.50;99.90;;;;;;4938100;29;20180;-92
2021/11/30 02:51:32;;;;;;;42.42;15.32;;;2.60;99.90;;;;;;4952371;29;20802;-90
2021/11/30 02:54:03;;;;;;;43.42;15.65;;;2.60;99.90;;;;;;4953668;29;20142;-91
2021/11/30 02:56:30;;;;;;;44.45;15.77;;;2.70;99.90;;;;;;4953650;29;20445;-91
2021/11/30 02:58:56;;;;;;;50.33;16.27;;;2.80;99.90;;;;;;4953223;29;20499;-91
2021/11/30 03:01:23;;;;;;;40.88;14.80;;;2.90;99.90;;;;;;4959715;28;20054;-92
2021/11/30 03:04:13;;;;;;;43.10;15.00;;;2.60;99.90;;;;;;4967553;28;20544;-91
2021/11/30 03:06:41;;;;;;;42.60;15.70;;;2.60;99.90;;;;;;4958127;28;20075;-92
2021/11/30 03:09:09;;;;;;;42.88;14.82;;;2.70;99.90;;;;;;4963189;28;20044;-92
2021/11/30 03:11:36;;;;;;;41.70;14.68;;;2.60;99.90;;;;;;4960409;28;20054;-93
2021/11/30 03:14:03;;;;;;;46.63;15.50;;;2.90;99.90;;;;;;4953960;28;20110;-92
2021/11/30 03:16:31;;;;;;;40.15;14.88;;;2.90;99.90;;;;;;4952465;28;20075;-93
2021/11/30 03:19:04;;;;;;;39.03;15.30;;;2.80;99.90;;;;;;4952590;28;20043;-93
2021/11/30 03:21:32;;;;;;;43.78;15.75;;;2.60;99.90;;;;;;4960401;28;20055;-93
2021/11/30 03:23:59;;;;;;;39.00;15.43;;;2.70;99.90;;;;;;4963155;28;20059;-92
2021/11/30 03:26:26;;;;;;;41.67;13.95;;;2.90;99.90;;;;;;4963109;28;20134;-92
2021/11/30 03:28:54;;;;;;;46.80;15.32;;;2.70;99.90;;;;;;4965474;28;20098;-91
2021/11/30 03:34:17;;;;;;;;;;;2.80;99.90;;;;;;4970504;28;20083;-90
2021/11/30 03:36:47;;;;;;;43.38;15.73;;;2.80;99.90;;;;;;4956843;28;20021;-90
2021/11/30 03:39:16;;;;;;;38.97;14.85;;;2.80;99.90;;;;;;4967399;28;20158;-91
2021/11/30 03:41:45;;;;;;;40.08;15.85;;;2.80;99.90;;;;;;4955985;28;20513;-91
2021/11/30 03:44:14;;;;;;;42.47;15.98;;;2.90;99.90;;;;;;4971938;28;20500;-89
2021/11/30 03:46:42;;;;;;;50.58;16.85;;;3.00;99.90;;;;;;4956721;28;20155;-90
2021/11/30 03:49:12;;;;;;;46.20;17.58;;;2.90;99.90;;;;;;4968906;28;20110;-90
2021/11/30 03:51:39;;;;;;;52.70;18.45;;;3.00;99.90;;;;;;4955301;28;20039;-90
2021/11/30 03:54:07;;;;;;;47.22;16.83;;;3.20;99.90;;;;;;4955298;28;20047;-89
2021/11/30 03:56:34;;;;;;;54.60;18.13;;;3.10;99.90;;;;;;4955481;28;20485;-89
2021/11/30 03:59:01;;;;;;;62.60;19.60;;;3.00;99.90;;;;;;4956400;29;20058;-87
2021/11/30 04:01:28;;;;;;;57.42;20.05;;;3.00;99.90;;;;;;4957001;29;20075;-88
2021/11/30 04:03:56;;;;;;;63.65;20.13;;;3.10;99.90;;;;;;4956072;29;20047;-87
2021/11/30 04:06:24;;;;;;;52.13;18.70;;;3.10;99.90;;;;;;4959030;28;20138;-88
2021/11/30 04:08:52;;;;;;;52.40;19.55;;;3.10;99.90;;;;;;4967382;28;20055;-87
2021/11/30 04:11:23;;;;;;;54.50;20.08;;;3.20;99.90;;;;;;4955324;28;20090;-87
2021/11/30 04:13:50;;;;;;;56.25;20.60;;;3.10;99.90;;;;;;4955263;28;20070;-88
2021/11/30 04:16:17;;;;;;;52.92;18.75;;;3.10;99.90;;;;;;4963473;28;20075;-87
2021/11/30 04:18:45;;;;;;;50.58;18.15;;;3.20;99.90;;;;;;4950485;29;20417;-87
2021/11/30 04:21:11;;;;;;;55.50;19.80;;;3.10;99.90;;;;;;4956528;28;20054;-88
2021/11/30 04:23:39;;;;;;;51.65;18.25;;;3.00;99.90;;;;;;4955678;28;20531;-87
2021/11/30 04:26:06;;;;;;;54.72;19.27;;;3.10;99.90;;;;;;4954872;28;20607;-87
2021/11/30 04:28:33;;;;;;;47.05;18.30;;;3.00;99.90;;;;;;4954898;28;20813;-87
2021/11/30 04:31:00;;;;;;;54.95;18.27;;;3.00;99.90;;;;;;4953546;28;20055;-86
2021/11/30 04:33:27;;;;;;;43.38;16.88;;;3.10;99.90;;;;;;4963674;28;20079;-87
2021/11/30 04:35:54;;;;;;;52.30;17.83;;;3.10;99.90;;;;;;4962560;28;20484;-87
2021/11/30 04:38:21;;;;;;;54.58;18.98;;;3.10;99.90;;;;;;4961460;28;20118;-87
2021/11/30 04:40:48;;;;;;;49.45;18.00;;;3.50;99.90;;;;;;4937767;29;20039;-86
2021/11/30 04:43:16;;;;;;;42.88;15.93;;;3.30;99.90;;;;;;4964678;28;20082;-87
2021/11/30 04:46:00;;;;;;;50.58;18.33;;;3.20;99.90;;;;;;4954610;29;20051;-87
2021/11/30 04:48:27;;;;;;;42.17;17.08;;;3.30;99.90;;;;;;4955787;29;20086;-87
2021/11/30 04:50:57;;;;;;;46.88;17.38;;;3.30;99.90;;;;;;4954240;28;20121;-87
2021/11/30 04:53:26;;;;;;;48.55;17.40;;;3.20;99.90;;;;;;4953930;29;20142;-86
2021/11/30 04:55:52;;;;;;;44.15;16.33;;;3.40;99.90;;;;;;4953167;28;20043;-87
2021/11/30 04:58:19;;;;;;;43.13;16.58;;;3.20;99.90;;;;;;4954203;28;20075;-87
2021/11/30 05:00:47;;;;;;;36.30;14.07;;;3.40;99.90;;;;;;4961510;28;20078;-86
2021/11/30 05:03:15;;;;;;;41.92;15.63;;;3.30;99.90;;;;;;4966907;28;20058;-87
2021/11/30 05:05:43;;;;;;;40.85;15.75;;;3.30;99.90;;;;;;4972243;28;20534;-86
2021/11/30 05:08:18;;;;;;;42.40;15.60;;;3.30;99.90;;;;;;4955215;28;20055;-85
2021/11/30 05:10:45;;;;;;;;;;;3.30;99.90;;;;;;4964421;28;20090;-86
2021/11/30 05:13:13;;;;;;;37.45;14.45;;;3.30;99.90;;;;;;4956275;29;19926;-86
2021/11/30 05:16:09;;;;;;;41.30;14.25;;;3.30;99.90;;;;;;4955324;29;20105;-86
2021/11/30 05:18:41;;;;;;;35.70;14.20;;;3.30;99.90;;;;;;4969817;28;20051;-85
2021/11/30 05:21:12;;;;;;;30.45;13.57;;;3.30;99.90;;;;;;4953974;28;20075;-85
2021/11/30 05:23:41;;;;;;;34.17;14.05;;;3.30;99.90;;;;;;4948848;29;20081;-84
2021/11/30 05:26:08;;;;;;;35.83;14.48;;;3.30;99.90;;;;;;4958814;28;20082;-85
2021/11/30 05:28:40;;;;;;;47.83;13.80;;;3.50;99.90;;;;;;4957278;28;20043;-85
2021/11/30 05:31:08;;;;;;;33.38;13.85;;;3.50;99.90;;;;;;4953380;29;20086;-84
2021/11/30 05:33:36;;;;;;;35.95;14.80;;;3.30;99.90;;;;;;4966462;28;20109;-84
2021/11/30 05:36:04;;;;;;;27.15;12.48;;;3.30;99.90;;;;;;4960172;28;20070;-84
2021/11/30 05:38:33;;;;;;;38.75;14.07;;;3.30;99.90;;;;;;4942981;29;20103;-84
2021/11/30 05:41:00;;;;;;;31.58;12.77;;;3.40;99.90;;;;;;4953736;28;20051;-83
2021/11/30 05:43:27;;;;;;;29.55;12.20;;;3.30;99.90;;;;;;4954285;28;20078;-84
2021/11/30 05:45:53;;;;;;;25.35;12.18;;;3.40;99.90;;;;;;4954425;28;20129;-84
2021/11/30 05:48:20;;;;;;;27.00;12.27;;;3.40;99.90;;;;;;4941083;28;20110;-83
2021/11/30 05:50:47;;;;;;;30.63;12.98;;;3.50;99.90;;;;;;4939014;28;20055;-83
2021/11/30 05:53:14;;;;;;;31.27;12.40;;;3.40;99.90;;;;;;4961757;28;20095;-83
2021/11/30 05:55:44;;;;;;;28.20;12.13;;;3.40;99.90;;;;;;4952436;28;20126;-83
2021/11/30 05:58:14;;;;;;;27.70;11.52;;;3.40;99.90;;;;;;4937584;29;20501;-82
2021/11/30 06:00:49;;;;;;;23.60;11.60;;;3.50;99.90;;;;;;4953091;28;20487;-85
2021/11/30 06:03:30;;;;;;;27.42;12.30;;;3.50;99.90;;;;;;4963221;28;20516;-85
2021/11/30 06:05:58;;;;;;;27.23;11.57;;;3.40;99.90;;;;;;4952367;29;20084;-89
2021/11/30 06:08:25;;;;;;;26.70;12.35;;;3.50;99.90;;;;;;4966498;28;20059;-85
2021/11/30 06:10:52;;;;;;;26.40;11.65;;;3.50;99.90;;;;;;4953871;28;20755;-90
2021/11/30 06:13:19;;;;;;;31.63;11.75;;;3.50;99.90;;;;;;4957633;28;20087;-90
2021/11/30 06:15:46;;;;;;;25.02;11.63;;;3.70;99.90;;;;;;4965081;28;20465;-86
2021/11/30 06:18:12;;;;;;;26.20;11.20;;;3.70;99.90;;;;;;4972345;28;20577;-90
2021/11/30 06:20:39;;;;;;;21.48;8.73;;;3.90;99.90;;;;;;4971483;28;20798;-85
2021/11/30 06:23:06;;;;;;;25.10;11.73;;;3.70;99.90;;;;;;4952495;28;20082;-83
2021/11/30 06:25:33;;;;;;;21.63;10.02;;;3.70;99.90;;;;;;4952186;29;20146;-84
2021/11/30 06:28:00;;;;;;;22.77;10.40;;;3.70;99.90;;;;;;4961359;28;20723;-85
2021/11/30 06:30:29;;;;;;;19.58;10.23;;;3.70;99.90;;;;;;4954089;28;20048;-85
2021/11/30 06:32:55;;;;;;;17.38;9.30;;;3.80;99.90;;;;;;4955014;28;20078;-84
2021/11/30 06:35:22;;;;;;;18.88;9.20;;;3.80;99.90;;;;;;4962539;28;20059;-88
2021/11/30 06:37:50;;;;;;;19.95;9.18;;;3.80;99.90;;;;;;4952490;28;20057;-86
2021/11/30 06:40:17;;;;;;;17.13;8.60;;;3.80;99.90;;;;;;4955251;28;20456;-85
2021/11/30 06:42:45;;;;;;;15.68;9.10;;;3.90;99.90;;;;;;4958998;28;20075;-86
2021/11/30 06:45:11;;;;;;;16.42;8.57;;;4.00;99.90;;;;;;4963077;28;20090;-85
2021/11/30 06:47:42;;;;;;;16.15;8.27;;;3.90;99.90;;;;;;4955578;28;20083;-84
2021/11/30 06:50:10;;;;;;;24.23;8.93;;;3.90;99.90;;;;;;4950905;28;20074;-83
2021/11/30 06:52:38;;;;;;;15.02;7.95;;;3.90;99.90;;;;;;4953389;28;20078;-83
2021/11/30 06:55:09;;;;;;;18.90;8.65;;;3.90;99.90;;;;;;4947599;28;20086;-83
2021/11/30 06:57:36;;;;;;;13.85;7.55;;;3.90;99.90;;;;;;4952554;28;20094;-83
2021/11/30 07:00:06;;;;;;;13.50;7.18;;;3.90;99.90;;;;;;4951286;29;20595;-86
2021/11/30 07:02:35;;;;;;;13.20;7.38;;;3.80;99.90;;;;;;4945815;28;20075;-86
2021/11/30 07:15:56;;;;;;;13.52;7.05;;;4.00;99.90;;;;;;4930927;29;20743;-82
2021/11/30 07:18:24;;;;;;;12.52;6.47;;;4.00;99.90;;;;;;4967110;28;20057;-82
2021/11/30 07:20:51;;;;;;;14.70;7.68;;;4.10;99.90;;;;;;4953367;28;20146;-82
2021/11/30 07:23:19;;;;;;;14.25;6.78;;;4.00;99.90;;;;;;4959324;28;20110;-82
2021/11/30 07:25:51;;;;;;;10.57;5.80;;;4.10;99.90;;;;;;4950451;28;20462;-83
2021/11/30 07:28:29;;;;;;;11.43;6.10;;;4.20;99.90;;;;;;4935111;29;20082;-75
2021/11/30 07:31:10;;;;;;;12.88;5.57;;;4.20;99.90;;;;;;4966783;28;20083;-83
2021/11/30 07:33:45;;;;;;;12.85;5.47;;;4.30;99.90;;;;;;4951560;29;20051;-82
2021/11/30 07:36:17;;;;;;;12.82;6.22;;;4.20;99.90;;;;;;4951450;28;20047;-82
2021/11/30 07:38:46;;;;;;;6.35;3.88;;;4.30;99.90;;;;;;4956902;28;20072;-83
2021/11/30 07:41:15;;;;;;;9.90;4.18;;;4.40;99.90;;;;;;4921225;29;20082;-83
2021/11/30 07:43:42;;;;;;;7.68;4.22;;;4.40;99.90;;;;;;4951085;28;20480;-83
2021/11/30 07:46:18;;;;;;;7.13;4.18;;;4.40;99.90;;;;;;4951179;29;20086;-84
2021/11/30 07:48:45;;;;;;;7.82;4.10;;;4.40;99.90;;;;;;4950274;29;20398;-83
2021/11/30 07:51:16;;;;;;;7.38;4.45;;;4.50;99.90;;;;;;4951957;28;20075;-83
2021/11/30 07:53:45;;;;;;;8.05;3.92;;;4.50;99.90;;;;;;4950684;28;20082;-83
2021/11/30 07:56:12;;;;;;;7.50;3.10;;;4.70;99.90;;;;;;4942112;29;20047;-83
2021/11/30 07:58:39;;;;;;;6.38;3.10;;;4.60;99.90;;;;;;4941453;28;20118;-82
2021/11/30 08:01:06;;;;;;;7.38;3.05;;;4.70;99.90;;;;;;4951512;28;20639;-82
2021/11/30 08:03:33;;;;;;;7.10;3.42;;;4.80;99.90;;;;;;4951086;28;20067;-81
2021/11/30 08:06:00;;;;;;;7.28;3.72;;;4.90;99.90;;;;;;4957595;28;20093;-81
2021/11/30 08:08:27;;;;;;;6.38;3.83;;;4.80;99.90;;;;;;4942970;28;20065;-82
2021/11/30 08:10:54;;;;;;;7.78;3.83;;;4.80;99.90;;;;;;4953777;28;20047;-81
2021/11/30 08:13:21;;;;;;;9.65;3.83;;;4.90;99.90;;;;;;4955687;28;20548;-85
2021/11/30 08:15:48;;;;;;;10.15;4.30;;;5.00;99.90;;;;;;4954590;29;20083;-83
2021/11/30 08:18:15;;;;;;;12.45;3.97;;;5.10;99.90;;;;;;4957101;28;20042;-84
2021/11/30 08:20:42;;;;;;;7.03;3.90;;;5.10;99.90;;;;;;4957670;28;20138;-80
2021/11/30 08:23:10;;;;;;;5.93;3.45;;;5.20;99.90;;;;;;4962122;28;20739;-83
2021/11/30 08:25:38;;;;;;;8.65;4.13;;;5.10;99.90;;;;;;4955388;29;20137;-83
2021/11/30 08:28:05;;;;;;;10.77;3.80;;;5.20;99.90;;;;;;4954614;29;20090;-84
2021/11/30 08:30:47;;;;;;;10.73;3.75;;;5.40;99.90;;;;;;4952878;28;20125;-84
2021/11/30 08:33:17;;;;;;;5.60;3.28;;;5.50;99.90;;;;;;4969723;28;20467;-86
2021/11/30 08:35:45;;;;;;;7.38;2.67;;;5.80;99.90;;;;;;4953917;28;20151;-84
2021/11/30 08:38:13;;;;;;;6.63;2.50;;;5.80;99.90;;;;;;4955215;28;21278;-81
2021/11/30 08:40:40;;;;;;;9.50;3.08;;;5.90;99.90;;;;;;4954801;28;20087;-80
2021/11/30 08:43:09;;;;;;;11.15;2.90;;;5.80;99.90;;;;;;4945832;28;20780;-81
2021/11/30 08:45:36;;;;;;;17.77;3.10;;;5.80;99.90;;;;;;4958464;28;20051;-80
2021/11/30 08:48:04;;;;;;;10.05;3.20;;;5.80;99.90;;;;;;4965944;28;20118;-80
2021/11/30 08:50:33;;;;;;;13.10;3.47;;;5.80;99.90;;;;;;4961125;28;20102;-80
2021/11/30 08:53:01;;;;;;;11.18;3.42;;;5.80;99.90;;;;;;4952449;29;21453;-82
2021/11/30 08:55:29;;;;;;;11.00;3.15;;;5.90;99.90;;;;;;4951770;28;20054;-83
2021/11/30 08:58:00;;;;;;;15.68;3.83;;;5.90;99.90;;;;;;4952567;29;20424;-81
2021/11/30 09:00:28;;;;;;;11.65;3.70;;;5.90;99.90;;;;;;4953914;28;20047;-82
2021/11/30 09:02:59;;;;;;;16.08;3.63;;;6.00;99.90;;;;;;4953930;28;20074;-82
2021/11/30 09:05:27;;;;;;;19.52;4.15;;;6.00;99.90;;;;;;4953897;29;20055;-83
2021/11/30 09:07:56;;;;;;;10.43;3.22;;;6.10;99.90;;;;;;4953164;28;20059;-82
2021/11/30 09:10:25;;;;;;;17.05;5.05;;;6.20;99.90;;;;;;4968209;28;20101;-82
2021/11/30 09:12:52;;;;;;;14.07;3.45;;;6.20;99.90;;;;;;4973536;28;20113;-82
2021/11/30 09:15:24;;;;;;;13.35;3.28;;;6.30;99.90;;;;;;4958085;28;20481;-82
2021/11/30 09:17:53;;;;;;;17.17;3.35;;;6.20;99.90;;;;;;4952942;28;20089;-82
2021/11/30 09:20:28;;;;;;;13.13;3.28;;;6.20;99.90;;;;;;4957048;28;20125;-82
2021/11/30 09:22:55;;;;;;;21.90;3.00;;;6.20;99.90;;;;;;4953322;28;20043;-82
2021/11/30 09:25:23;;;;;;;11.40;3.10;;;6.30;99.90;;;;;;4954297;28;20043;-81
2021/11/30 09:27:50;;;;;;;21.52;3.40;;;6.20;99.90;;;;;;4949628;29;20090;-81
2021/11/30 09:30:19;;;;;;;11.43;2.33;;;6.20;99.90;;;;;;4959318;28;20075;-84
2021/11/30 09:32:47;;;;;;;12.60;2.90;;;6.20;99.90;;;;;;4953983;28;20055;-84
2021/11/30 09:35:18;;;;;;;21.35;3.20;;;6.30;99.90;;;;;;4954811;28;20138;-85
2021/11/30 09:37:47;;;;;;;19.30;2.40;;;6.30;99.90;;;;;;4952956;28;20051;-85
2021/11/30 09:40:17;;;;;;;18.67;2.22;;;6.30;99.90;;;;;;4953514;28;20047;-85
2021/11/30 09:42:48;;;;;;;30.92;3.15;;;6.30;99.90;;;;;;4954885;28;20087;-85
2021/11/30 09:45:16;;;;;;;19.25;2.20;;;6.40;99.90;;;;;;4956602;28;20051;-85
2021/11/30 09:47:43;;;;;;;32.08;3.30;;;6.50;99.90;;;;;;4953934;28;20050;-85
2021/11/30 09:50:16;;;;;;;29.27;3.40;;;6.60;99.90;;;;;;4953118;29;20086;-84
2021/11/30 09:52:44;;;;;;;24.77;3.00;;;6.70;99.90;;;;;;4937261;29;20123;-85
2021/11/30 09:55:14;;;;;;;26.63;3.08;;;6.80;99.90;;;;;;4952607;28;20097;-85
2021/11/30 09:57:43;;;;;;;27.10;2.72;;;6.90;99.90;;;;;;4952557;29;20858;-85
2021/11/30 10:00:12;;;;;;;22.13;3.05;;;7.00;99.90;;;;;;4942430;29;20082;-84
2021/11/30 10:02:54;;;;;;;19.85;2.97;;;7.10;99.90;;;;;;4953265;28;20051;-85
2021/11/30 10:05:23;;;;;;;22.70;2.75;;;7.20;99.90;;;;;;4945502;28;20048;-84
2021/11/30 10:07:53;;;;;;;24.95;3.35;;;7.20;99.90;;;;;;4936662;29;20066;-86
2021/11/30 10:10:31;;;;;;;31.10;3.15;;;7.20;99.90;;;;;;4950380;28;20127;-85
2021/11/30 10:13:03;;;;;;;28.00;3.25;;;7.10;99.90;;;;;;4962652;28;20090;-85
2021/11/30 10:15:52;;;;;;;28.15;3.15;;;7.10;99.90;;;;;;4935794;29;20164;-86
2021/11/30 10:18:30;;;;;;;22.20;3.22;;;7.10;99.90;;;;;;4936894;29;20047;-88
2021/11/30 10:21:20;;;;;;;36.08;3.20;;;7.10;99.90;;;;;;4952455;28;20079;-86
2021/11/30 10:23:56;;;;;;;31.00;4.18;;;7.20;99.90;;;;;;4952753;28;20043;-83
2021/11/30 10:26:31;;;;;;;30.17;3.25;;;7.20;99.90;;;;;;4951323;28;20067;-83
2021/11/30 10:28:59;;;;;;;;;;;7.20;99.90;;;;;;4957373;28;20411;-83
2021/11/30 10:31:43;;;;;;;25.30;2.88;;;7.20;99.90;;;;;;4959579;28;20730;-82
2021/11/30 10:34:13;;;;;;;28.38;3.15;;;7.20;99.90;;;;;;4967854;28;20073;-82
2021/11/30 10:37:20;;;;;;;29.85;3.28;;;7.50;99.90;;;;;;4942458;28;20145;-82
2021/11/30 10:39:47;;;;;;;42.08;3.60;;;7.50;99.90;;;;;;4913373;28;20081;-82
2021/11/30 10:42:24;;;;;;;29.48;2.75;;;7.60;99.90;;;;;;4955232;28;20049;-82
2021/11/30 10:44:55;;;;;;;23.10;3.28;;;7.60;99.90;;;;;;4959951;28;20047;-82
2021/11/30 10:47:27;;;;;;;20.88;2.65;;;7.50;99.90;;;;;;4936152;29;20066;-88
2021/11/30 10:50:09;;;;;;;23.55;3.45;;;7.60;99.90;;;;;;4953059;28;20083;-85
2021/11/30 10:52:39;;;;;;;25.00;3.15;;;7.50;99.90;;;;;;4957762;28;20078;-85
2021/11/30 10:55:14;;;;;;;28.85;3.22;;;7.50;99.90;;;;;;4949744;29;20146;-86
2021/11/30 10:57:42;;;;;;;25.02;3.08;;;7.50;99.90;;;;;;4955042;28;20047;-88
2021/11/30 11:00:20;;;;;;;17.77;4.15;;;7.50;99.90;;;;;;4943840;29;20683;-88
2021/11/30 11:02:52;;;;;;;27.83;4.85;;;7.50;99.90;;;;;;4962893;28;20697;-88
2021/11/30 11:05:26;;;;;;;20.33;3.13;;;7.70;99.90;;;;;;4952086;28;20051;-90
2021/11/30 11:08:04;;;;;;;26.85;4.90;;;7.80;99.90;;;;;;4954606;28;20163;-89
2021/11/30 11:10:33;;;;;;;20.27;3.33;;;7.80;99.90;;;;;;4952067;28;20127;-88
2021/11/30 11:13:18;;;;;;;25.27;4.13;;;7.70;99.90;;;;;;4951583;28;20055;-87
2021/11/30 11:15:46;;;;;;;31.15;3.97;;;7.80;99.90;;;;;;4929635;29;20567;-83
2021/11/30 11:18:20;;;;;;;27.35;3.92;;;7.90;99.90;;;;;;4951652;29;20601;-86
2021/11/30 11:20:51;;;;;;;26.60;4.10;;;8.00;99.90;;;;;;4958482;28;20094;-85
2021/11/30 11:23:22;;;;;;;16.23;3.20;;;8.10;99.90;;;;;;4953653;28;20122;-85
2021/11/30 11:25:53;;;;;;;23.60;3.55;;;8.10;99.90;;;;;;4947924;29;20130;-84
2021/11/30 11:28:22;;;;;;;17.98;3.15;;;8.20;99.90;;;;;;4950622;28;20074;-89
2021/11/30 11:30:50;;;;;;;32.08;4.88;;;8.10;99.90;;;;;;4951889;28;20047;-90
2021/11/30 11:33:17;;;;;;;24.13;4.05;;;8.00;99.90;;;;;;4954768;28;20086;-87
2021/11/30 11:35:44;;;;;;;31.75;3.35;;;8.00;99.90;;;;;;4955282;28;20085;-88
2021/11/30 11:38:12;;;;;;;26.38;4.15;;;8.00;99.90;;;;;;4952003;29;20056;-88
2021/11/30 11:40:41;;;;;;;23.83;3.17;;;8.20;99.90;;;;;;4953072;28;20087;-88
2021/11/30 11:43:08;;;;;;;25.35;3.60;;;8.20;99.90;;;;;;4942590;29;20044;-87
2021/11/30 11:45:35;;;;;;;21.70;2.97;;;8.20;99.90;;;;;;4949667;28;20130;-78
2021/11/30 11:48:07;;;;;;;19.38;4.30;;;8.30;99.90;;;;;;4955777;28;20055;-79
2021/11/30 11:50:53;;;;;;;28.67;3.90;;;8.20;99.90;;;;;;4940917;28;20138;-79
2021/11/30 11:53:21;;;;;;;;;;;7.90;99.90;;;;;;4949437;28;20078;-78
2021/11/30 11:56:07;;;;;;;28.38;3.53;;;7.60;99.90;;;;;;4955743;28;19974;-78
2021/11/30 11:58:37;;;;;;;30.00;3.60;;;7.50;99.90;;;;;;4950705;28;20130;-79
2021/11/30 12:01:04;;;;;;;25.70;4.22;;;7.50;99.90;;;;;;4952323;28;20043;-80
2021/11/30 12:03:55;;;;;;;34.75;3.58;;;7.60;99.90;;;;;;4931621;29;20043;-79
2021/11/30 12:06:26;;;;;;;27.02;3.47;;;7.80;99.90;;;;;;4950427;29;20106;-77
2021/11/30 12:09:11;;;;;;;18.52;2.90;;;7.80;99.90;;;;;;4944458;29;20488;-77
2021/11/30 12:11:48;;;;;;;23.88;3.05;;;7.70;99.90;;;;;;4948274;28;20801;-78
2021/11/30 12:14:22;;;;;;;26.77;3.78;;;7.60;99.90;;;;;;4948671;28;20082;-78
2021/11/30 12:17:09;;;;;;;16.85;2.47;;;7.50;99.90;;;;;;4931322;29;20114;-78
2021/11/30 12:19:56;;;;;;;20.08;2.47;;;7.50;99.90;;;;;;4966839;28;20046;-78
2021/11/30 12:22:43;;;;;;;22.95;2.80;;;7.70;99.90;;;;;;4953444;28;20576;-78
2021/11/30 12:25:25;;;;;;;26.73;3.63;;;7.70;99.90;;;;;;4950411;28;20151;-78
2021/11/30 12:27:57;;;;;;;16.33;2.92;;;7.60;99.90;;;;;;4963493;28;20086;-78
2021/11/30 12:30:48;;;;;;;18.40;2.72;;;7.60;99.90;;;;;;4951412;28;20386;-79
2021/11/30 12:33:16;;;;;;;16.65;2.33;;;7.50;99.90;;;;;;4934272;29;20149;-79
2021/11/30 12:35:55;;;;;;;20.15;2.95;;;7.60;99.90;;;;;;4932093;29;20075;-79
2021/11/30 12:38:51;;;;;;;23.20;2.67;;;7.80;99.90;;;;;;4942414;28;20074;-79
2021/11/30 12:41:31;;;;;;;22.67;3.28;;;8.00;99.90;;;;;;4956807;28;20047;-76
2021/11/30 12:44:22;;;;;;;18.30;3.65;;;7.90;99.90;;;;;;4945176;28;20051;-76
2021/11/30 12:46:55;;;;;;;12.77;2.00;;;7.90;99.90;;;;;;4943886;29;20101;-76
2021/11/30 12:49:30;;;;;;;26.08;2.60;;;7.70;99.90;;;;;;4930410;28;20051;-76
2021/11/30 12:52:06;;;;;;;18.40;2.85;;;7.70;99.90;;;;;;4947720;28;20396;-76
2021/11/30 12:54:35;;;;;;;13.55;2.60;;;7.60;99.90;;;;;;4943770;28;20066;-76
2021/11/30 12:57:04;;;;;;;17.05;2.88;;;7.50;99.90;;;;;;4949131;28;20143;-77
2021/11/30 12:59:37;;;;;;;17.58;2.75;;;7.60;99.90;;;;;;4929390;29;20173;-77
2021/11/30 13:02:28;;;;;;;25.33;3.10;;;7.50;99.90;;;;;;4947475;28;20052;-78
2021/11/30 13:05:11;;;;;;;20.98;2.75;;;7.60;99.90;;;;;;4933574;29;20059;-78
2021/11/30 13:07:47;;;;;;;23.63;2.55;;;7.90;99.90;;;;;;4958807;28;20082;-78
2021/11/30 13:10:20;;;;;;;16.17;2.70;;;8.20;99.90;;;;;;4944727;28;20051;-78
2021/11/30 13:12:47;;;;;;;10.15;1.92;;;8.40;99.90;;;;;;4947964;28;20137;-75
2021/11/30 13:15:14;;;;;;;25.73;3.85;;;8.40;99.90;;;;;;4949319;28;20162;-77
2021/11/30 13:17:42;;;;;;;18.25;2.28;;;8.40;99.90;;;;;;4949800;28;20083;-78
2021/11/30 13:20:12;;;;;;;13.60;1.98;;;8.30;99.90;;;;;;4945310;29;20047;-78